Time;durP1;ratioP1;P1;durP2;ratioP2;P2;SDS_P1;SDS_P2;PMS_P1;PMS_P2;Temp;Humidity;BMP_temperature;BMP_pressure;BME280_temperature;BME280_humidity;BME280_pressure;Samples;Min_cycle;Max_cycle;Signal;HPM_P1;HPM_P2
2022/10/26 00:02:16;;;;;;;14.85;9.90;;;;;;;;;;5073259;28;20215;-64
2022/10/26 00:04:42;;;;;;;14.98;8.95;;;;;;;;;;5071736;28;20127;-64
2022/10/26 00:07:08;;;;;;;13.95;9.68;;;;;;;;;;5073079;28;20040;-64
2022/10/26 00:09:35;;;;;;;18.33;9.63;;;;;;;;;;5073348;28;20131;-64
2022/10/26 00:12:01;;;;;;;18.83;10.35;;;;;;;;;;5072481;28;20091;-64
2022/10/26 00:14:27;;;;;;;19.55;9.52;;;;;;;;;;5073365;28;20087;-64
2022/10/26 00:16:53;;;;;;;21.17;10.10;;;;;;;;;;5073347;28;20049;-64
2022/10/26 00:19:19;;;;;;;16.30;9.95;;;;;;;;;;5072773;28;20398;-64
2022/10/26 00:21:45;;;;;;;18.27;9.85;;;;;;;;;;5072898;28;20114;-64
2022/10/26 00:24:11;;;;;;;18.85;9.95;;;;;;;;;;5073077;28;20041;-64
2022/10/26 00:26:37;;;;;;;15.55;9.48;;;;;;;;;;5072623;28;20099;-64
2022/10/26 00:29:04;;;;;;;16.75;10.20;;;;;;;;;;5072733;28;20044;-64
2022/10/26 00:31:30;;;;;;;18.30;10.02;;;;;;;;;;5073095;28;20041;-64
2022/10/26 00:33:56;;;;;;;17.92;9.80;;;;;;;;;;5071589;28;20482;-64
2022/10/26 00:36:23;;;;;;;16.27;9.55;;;;;;;;;;5073053;28;20075;-64
2022/10/26 00:38:52;;;;;;;16.95;9.40;;;;;;;;;;5072695;28;20407;-64
2022/10/26 00:41:20;;;;;;;18.33;10.55;;;;;;;;;;5072416;28;20047;-64
2022/10/26 00:43:46;;;;;;;16.20;9.93;;;;;;;;;;5072707;28;20448;-64
2022/10/26 00:46:15;;;;;;;15.45;10.07;;;;;;;;;;5072682;28;20491;-64
2022/10/26 00:48:44;;;;;;;18.25;9.82;;;;;;;;;;5072141;28;20585;-64
2022/10/26 00:51:16;;;;;;;16.38;9.82;;;;;;;;;;5072677;28;20036;-64
2022/10/26 00:53:42;;;;;;;17.10;9.48;;;;;;;;;;5072676;28;20040;-64
2022/10/26 00:56:09;;;;;;;17.27;9.70;;;;;;;;;;5072151;28;20724;-64
2022/10/26 00:58:35;;;;;;;20.50;9.57;;;;;;;;;;5072527;28;20067;-64
2022/10/26 01:01:01;;;;;;;17.40;9.38;;;;;;;;;;5072416;28;20162;-64
2022/10/26 01:03:27;;;;;;;16.27;8.90;;;;;;;;;;5072063;28;20052;-64
2022/10/26 01:05:55;;;;;;;21.75;9.35;;;;;;;;;;5072144;28;20432;-64
2022/10/26 01:08:21;;;;;;;17.60;9.52;;;;;;;;;;5072282;28;20120;-64
2022/10/26 01:10:48;;;;;;;16.90;9.75;;;;;;;;;;5071415;28;20403;-64
2022/10/26 01:13:15;;;;;;;17.75;9.35;;;;;;;;;;5071851;28;20056;-64
2022/10/26 01:15:53;;;;;;;12.43;8.73;;;;;;;;;;5071866;28;20052;-64
2022/10/26 01:18:22;;;;;;;14.10;9.05;;;;;;;;;;5071834;28;20040;-64
2022/10/26 01:21:06;;;;;;;15.95;8.57;;;;;;;;;;5071969;28;20041;-64
2022/10/26 01:23:32;;;;;;;13.85;8.07;;;;;;;;;;5072062;28;20082;-64
2022/10/26 01:26:10;;;;;;;16.10;8.27;;;;;;;;;;5071360;28;20037;-64
2022/10/26 01:28:36;;;;;;;18.38;8.95;;;;;;;;;;5072031;28;20173;-64
2022/10/26 01:31:03;;;;;;;12.68;8.18;;;;;;;;;;5071762;28;20047;-64
2022/10/26 01:33:29;;;;;;;15.65;8.90;;;;;;;;;;5071454;28;20033;-64
2022/10/26 01:36:18;;;;;;;19.73;8.77;;;;;;;;;;5071807;28;20473;-64
2022/10/26 01:38:53;;;;;;;13.85;8.82;;;;;;;;;;5070929;28;20044;-64
2022/10/26 01:41:19;;;;;;;20.20;10.02;;;;;;;;;;5071645;28;20044;-64
2022/10/26 01:43:50;;;;;;;13.82;9.50;;;;;;;;;;5071286;28;20123;-64
2022/10/26 01:46:16;;;;;;;22.67;9.55;;;;;;;;;;5071054;28;20045;-64
2022/10/26 01:48:43;;;;;;;15.32;9.85;;;;;;;;;;5071555;28;20044;-64
2022/10/26 01:51:11;;;;;;;12.85;9.57;;;;;;;;;;5071559;28;20045;-64
2022/10/26 01:53:41;;;;;;;16.63;10.13;;;;;;;;;;5071286;28;20417;-64
2022/10/26 01:56:12;;;;;;;16.42;9.55;;;;;;;;;;5071437;28;20052;-64
2022/10/26 01:58:44;;;;;;;18.63;9.88;;;;;;;;;;5071127;28;20044;-64
2022/10/26 02:01:16;;;;;;;16.70;10.43;;;;;;;;;;5070925;28;20036;-64
2022/10/26 02:04:06;;;;;;;13.23;9.50;;;;;;;;;;5071263;28;20040;-64
2022/10/26 02:06:51;;;;;;;16.00;10.10;;;;;;;;;;5067647;28;20052;-64
2022/10/26 02:09:16;;;;;;;16.50;10.30;;;;;;;;;;5070690;28;20048;-64
2022/10/26 02:11:45;;;;;;;16.25;10.40;;;;;;;;;;5070827;28;20083;-64
2022/10/26 02:14:26;;;;;;;18.70;10.40;;;;;;;;;;5071137;28;20043;-64
2022/10/26 02:16:54;;;;;;;13.98;10.20;;;;;;;;;;5070641;28;20036;-64
2022/10/26 02:19:20;;;;;;;17.20;9.98;;;;;;;;;;5071047;28;20044;-64
2022/10/26 02:21:53;;;;;;;15.80;10.90;;;;;;;;;;5069625;28;20036;-64
2022/10/26 02:24:19;;;;;;;;;;;;;;;;;;5070986;28;20463;-64
2022/10/26 02:26:46;;;;;;;16.83;11.02;;;;;;;;;;5070944;28;19917;-64
2022/10/26 02:29:15;;;;;;;17.20;11.18;;;;;;;;;;5070886;28;20390;-64
2022/10/26 02:31:42;;;;;;;20.55;12.10;;;;;;;;;;5070418;28;20475;-64
2022/10/26 02:34:11;;;;;;;18.55;10.93;;;;;;;;;;5070907;28;20382;-64
2022/10/26 02:36:38;;;;;;;18.08;10.77;;;;;;;;;;5070858;28;20052;-64
2022/10/26 02:39:05;;;;;;;23.45;14.02;;;;;;;;;;5070174;28;20116;-64
2022/10/26 02:41:32;;;;;;;17.00;11.32;;;;;;;;;;5070417;28;20052;-64
2022/10/26 02:44:14;;;;;;;17.05;11.02;;;;;;;;;;5070559;28;20182;-64
2022/10/26 02:46:40;;;;;;;;;;;;;;;;;;5070375;28;20112;-64
2022/10/26 02:49:06;;;;;;;17.00;11.73;;;;;;;;;;5070650;28;19916;-64
2022/10/26 02:51:38;;;;;;;16.52;11.65;;;;;;;;;;5070607;28;20072;-64
2022/10/26 02:54:10;;;;;;;19.58;12.23;;;;;;;;;;5070432;28;20087;-64
2022/10/26 02:56:53;;;;;;;18.80;11.40;;;;;;;;;;5071804;28;20032;-64
2022/10/26 02:59:21;;;;;;;19.60;11.63;;;;;;;;;;5074750;28;20068;-64
2022/10/26 03:01:48;;;;;;;20.80;12.70;;;;;;;;;;5074390;28;20044;-64
2022/10/26 03:04:14;;;;;;;20.83;11.70;;;;;;;;;;5074511;28;20045;-64
2022/10/26 03:06:40;;;;;;;19.00;13.13;;;;;;;;;;5074246;28;20074;-64
2022/10/26 03:09:06;;;;;;;22.25;12.50;;;;;;;;;;5074134;28;20041;-64
2022/10/26 03:11:32;;;;;;;21.02;12.40;;;;;;;;;;5074322;28;20367;-64
2022/10/26 03:13:58;;;;;;;25.60;13.13;;;;;;;;;;5074383;28;20037;-64
2022/10/26 03:16:24;;;;;;;19.00;12.75;;;;;;;;;;5072836;28;20398;-64
2022/10/26 03:18:50;;;;;;;22.48;12.30;;;;;;;;;;5074309;28;20040;-64
2022/10/26 03:21:17;;;;;;;23.02;13.00;;;;;;;;;;5074395;28;20040;-64
2022/10/26 03:23:43;;;;;;;21.45;13.10;;;;;;;;;;5073631;28;20054;-64
2022/10/26 03:26:09;;;;;;;20.00;12.90;;;;;;;;;;5074065;28;20115;-64
2022/10/26 03:28:35;;;;;;;20.48;12.85;;;;;;;;;;5074107;28;20132;-64
2022/10/26 03:31:01;;;;;;;22.10;13.52;;;;;;;;;;5073705;28;20131;-64
2022/10/26 03:33:27;;;;;;;19.27;13.50;;;;;;;;;;5074153;28;20041;-64
2022/10/26 03:35:56;;;;;;;21.90;13.07;;;;;;;;;;5074148;28;20032;-64
2022/10/26 03:38:22;;;;;;;19.98;12.65;;;;;;;;;;5073371;28;20032;-64
2022/10/26 03:40:48;;;;;;;21.90;13.23;;;;;;;;;;5073846;28;20063;-64
2022/10/26 03:43:14;;;;;;;20.90;14.00;;;;;;;;;;5073865;28;20070;-64
2022/10/26 03:45:40;;;;;;;26.05;14.68;;;;;;;;;;5073047;28;20044;-64
2022/10/26 03:48:06;;;;;;;27.75;14.18;;;;;;;;;;5073671;28;20028;-64
2022/10/26 03:50:32;;;;;;;27.95;13.88;;;;;;;;;;5073771;28;20044;-64
2022/10/26 03:52:58;;;;;;;22.95;12.95;;;;;;;;;;5073468;28;20063;-64
2022/10/26 03:55:24;;;;;;;22.67;13.13;;;;;;;;;;5073821;28;20087;-64
2022/10/26 03:57:50;;;;;;;23.80;14.25;;;;;;;;;;5073607;28;20052;-64
2022/10/26 04:00:17;;;;;;;20.77;14.13;;;;;;;;;;5073140;28;20044;-64
2022/10/26 04:02:47;;;;;;;22.08;14.20;;;;;;;;;;5073405;28;20076;-64
2022/10/26 04:05:15;;;;;;;24.00;13.90;;;;;;;;;;5073344;28;20037;-64
2022/10/26 04:07:41;;;;;;;21.80;13.95;;;;;;;;;;5072607;28;20395;-64
2022/10/26 04:10:07;;;;;;;22.73;13.98;;;;;;;;;;5073416;28;20044;-64
2022/10/26 04:12:36;;;;;;;23.40;14.38;;;;;;;;;;5073045;28;20434;-64
2022/10/26 04:15:02;;;;;;;25.95;14.75;;;;;;;;;;5072690;28;20052;-64
2022/10/26 04:17:28;;;;;;;21.35;14.88;;;;;;;;;;5072981;28;20048;-64
2022/10/26 04:19:55;;;;;;;24.25;14.70;;;;;;;;;;5073137;28;20044;-64
2022/10/26 04:22:21;;;;;;;23.63;14.30;;;;;;;;;;5072778;28;20044;-64
2022/10/26 04:24:48;;;;;;;26.92;14.82;;;;;;;;;;5071665;28;20052;-64
2022/10/26 04:27:14;;;;;;;22.35;14.32;;;;;;;;;;5073028;28;20398;-64
2022/10/26 04:29:40;;;;;;;22.80;13.88;;;;;;;;;;5072697;28;20032;-64
2022/10/26 04:32:06;;;;;;;23.70;14.90;;;;;;;;;;5073070;28;20035;-64
2022/10/26 04:34:32;;;;;;;22.05;13.98;;;;;;;;;;5073020;28;20666;-63
2022/10/26 04:36:58;;;;;;;25.67;14.40;;;;;;;;;;5072387;28;20352;-63
2022/10/26 04:39:24;;;;;;;23.02;14.32;;;;;;;;;;5072828;28;20040;-63
2022/10/26 04:41:51;;;;;;;27.20;14.27;;;;;;;;;;5072865;28;20045;-63
2022/10/26 04:44:17;;;;;;;25.15;14.23;;;;;;;;;;5072268;28;20037;-63
2022/10/26 04:46:43;;;;;;;23.23;14.13;;;;;;;;;;5072734;28;20428;-63
2022/10/26 04:49:09;;;;;;;22.08;14.15;;;;;;;;;;5072617;28;20043;-64
2022/10/26 04:51:35;;;;;;;24.95;13.63;;;;;;;;;;5072310;28;20118;-64
2022/10/26 04:54:02;;;;;;;20.00;13.52;;;;;;;;;;5072616;28;20032;-64
2022/10/26 04:56:28;;;;;;;22.33;13.82;;;;;;;;;;5072624;28;20059;-63
2022/10/26 04:58:54;;;;;;;20.35;13.77;;;;;;;;;;5071405;28;20085;-63
2022/10/26 05:01:21;;;;;;;24.40;13.63;;;;;;;;;;5072279;28;20044;-63
2022/10/26 05:03:51;;;;;;;22.05;14.07;;;;;;;;;;5070358;28;20198;-63
2022/10/26 05:06:18;;;;;;;22.58;13.52;;;;;;;;;;5071697;28;20059;-63
2022/10/26 05:08:44;;;;;;;25.45;14.18;;;;;;;;;;5072120;28;20378;-63
2022/10/26 05:11:10;;;;;;;20.92;13.75;;;;;;;;;;5068226;28;20037;-63
2022/10/26 05:13:36;;;;;;;24.45;13.85;;;;;;;;;;5071138;28;20573;-63
2022/10/26 05:16:02;;;;;;;20.75;13.70;;;;;;;;;;5071254;28;20040;-63
2022/10/26 05:18:28;;;;;;;23.42;13.35;;;;;;;;;;5071731;28;20045;-63
2022/10/26 05:20:54;;;;;;;25.38;14.18;;;;;;;;;;5070669;28;20040;-63
2022/10/26 05:23:20;;;;;;;19.60;13.07;;;;;;;;;;5071790;28;20040;-63
2022/10/26 05:25:47;;;;;;;19.60;12.65;;;;;;;;;;5071621;28;20121;-63
2022/10/26 05:28:14;;;;;;;20.98;13.95;;;;;;;;;;5071242;28;20044;-63
2022/10/26 05:30:40;;;;;;;20.15;13.35;;;;;;;;;;5071717;28;20520;-63
2022/10/26 05:33:08;;;;;;;26.25;14.75;;;;;;;;;;5071467;28;20040;-63
2022/10/26 05:35:34;;;;;;;24.38;13.32;;;;;;;;;;5070995;28;20055;-63
2022/10/26 05:38:05;;;;;;;21.00;13.18;;;;;;;;;;5071483;28;20040;-63
2022/10/26 05:40:31;;;;;;;21.35;12.80;;;;;;;;;;5071248;28;20040;-63
2022/10/26 05:43:00;;;;;;;20.70;13.07;;;;;;;;;;5070835;28;20055;-63
2022/10/26 05:45:27;;;;;;;20.05;12.88;;;;;;;;;;5071114;28;20348;-64
2022/10/26 05:47:53;;;;;;;24.13;13.93;;;;;;;;;;5070993;28;20032;-63
2022/10/26 05:50:19;;;;;;;21.48;12.77;;;;;;;;;;5070712;28;20068;-63
2022/10/26 05:52:46;;;;;;;19.73;12.43;;;;;;;;;;5071113;28;20049;-63
2022/10/26 05:55:13;;;;;;;21.33;13.07;;;;;;;;;;5071043;28;20067;-63
2022/10/26 05:57:39;;;;;;;24.48;12.63;;;;;;;;;;5070778;28;20109;-63
2022/10/26 06:00:10;;;;;;;20.75;12.30;;;;;;;;;;5070608;28;20036;-63
2022/10/26 06:02:44;;;;;;;19.38;13.13;;;;;;;;;;5070725;28;20037;-63
2022/10/26 06:05:13;;;;;;;19.02;12.70;;;;;;;;;;5070223;28;20083;-63
2022/10/26 06:07:40;;;;;;;22.48;13.10;;;;;;;;;;5070900;28;20048;-63
2022/10/26 06:10:06;;;;;;;21.63;11.68;;;;;;;;;;5070930;28;20036;-63
2022/10/26 06:12:32;;;;;;;23.48;12.95;;;;;;;;;;5070008;28;20105;-63
2022/10/26 06:14:58;;;;;;;20.85;12.52;;;;;;;;;;5070157;28;20048;-63
2022/10/26 06:17:38;;;;;;;20.10;12.43;;;;;;;;;;5070973;28;20102;-63
2022/10/26 06:20:16;;;;;;;18.75;12.20;;;;;;;;;;5070305;28;20082;-63
2022/10/26 06:22:42;;;;;;;22.52;12.48;;;;;;;;;;5070909;28;20036;-63
2022/10/26 06:25:21;;;;;;;20.88;12.50;;;;;;;;;;5069363;28;20124;-63
2022/10/26 06:27:50;;;;;;;21.08;12.63;;;;;;;;;;5063551;28;20036;-63
2022/10/26 06:30:16;;;;;;;21.85;12.68;;;;;;;;;;5065888;28;20046;-63
2022/10/26 06:32:46;;;;;;;18.67;12.10;;;;;;;;;;5063428;28;20042;-62
2022/10/26 06:35:15;;;;;;;19.00;12.15;;;;;;;;;;5067535;28;20484;-62
2022/10/26 06:37:44;;;;;;;21.08;12.45;;;;;;;;;;5069894;28;20440;-62
2022/10/26 06:40:15;;;;;;;18.38;11.50;;;;;;;;;;5069054;28;20452;-62
2022/10/26 06:42:41;;;;;;;23.55;12.25;;;;;;;;;;5049578;28;20036;-63
2022/10/26 06:45:11;;;;;;;18.67;12.73;;;;;;;;;;5066393;28;20083;-63
2022/10/26 06:47:40;;;;;;;19.52;11.55;;;;;;;;;;5055476;28;20643;-63
2022/10/26 06:50:06;;;;;;;17.30;10.50;;;;;;;;;;5069156;28;20385;-63
2022/10/26 06:52:32;;;;;;;17.80;11.60;;;;;;;;;;5069615;28;20051;-63
2022/10/26 06:54:59;;;;;;;16.13;11.25;;;;;;;;;;5069738;28;20055;-63
2022/10/26 06:57:30;;;;;;;17.95;10.82;;;;;;;;;;5068775;28;20253;-63
2022/10/26 07:00:01;;;;;;;19.35;10.88;;;;;;;;;;5069391;28;20044;-64
2022/10/26 07:02:27;;;;;;;17.92;10.98;;;;;;;;;;5069391;28;20458;-64
2022/10/26 07:04:53;;;;;;;20.85;10.48;;;;;;;;;;5068730;28;20040;-64
2022/10/26 07:07:20;;;;;;;21.13;11.27;;;;;;;;;;5065193;28;20037;-62
2022/10/26 07:09:46;;;;;;;17.10;10.82;;;;;;;;;;5064418;28;20032;-65
2022/10/26 07:12:13;;;;;;;17.67;10.27;;;;;;;;;;5064552;28;20056;-64
2022/10/26 07:14:39;;;;;;;16.45;10.30;;;;;;;;;;5063759;28;20045;-64
2022/10/26 07:17:05;;;;;;;18.60;11.27;;;;;;;;;;5063487;28;20047;-64
2022/10/26 07:19:31;;;;;;;14.32;10.85;;;;;;;;;;5064741;28;20042;-64
2022/10/26 07:21:59;;;;;;;17.25;9.75;;;;;;;;;;5065674;28;20412;-64
2022/10/26 07:24:25;;;;;;;16.50;10.48;;;;;;;;;;5067023;28;20048;-65
2022/10/26 07:26:54;;;;;;;15.93;10.20;;;;;;;;;;5064469;28;20037;-65
2022/10/26 07:29:20;;;;;;;13.60;9.77;;;;;;;;;;5084099;28;20547;-64
2022/10/26 07:31:46;;;;;;;17.23;10.30;;;;;;;;;;5067797;28;20757;-65
2022/10/26 07:34:12;;;;;;;19.75;10.02;;;;;;;;;;5065592;28;20449;-64
2022/10/26 07:36:38;;;;;;;16.05;9.20;;;;;;;;;;5067491;28;20044;-64
2022/10/26 07:39:04;;;;;;;15.98;9.35;;;;;;;;;;5068474;28;20071;-64
2022/10/26 07:41:30;;;;;;;15.05;8.82;;;;;;;;;;5067048;28;20093;-65
2022/10/26 07:43:57;;;;;;;14.80;9.30;;;;;;;;;;5068601;28;20032;-64
2022/10/26 07:46:23;;;;;;;19.75;9.20;;;;;;;;;;5071033;28;20033;-65
2022/10/26 07:48:49;;;;;;;16.77;9.50;;;;;;;;;;5071670;28;20417;-61
2022/10/26 07:51:15;;;;;;;12.98;9.23;;;;;;;;;;5068456;28;20140;-65
2022/10/26 07:53:41;;;;;;;18.27;9.20;;;;;;;;;;5071599;28;20055;-65
2022/10/26 07:56:07;;;;;;;16.15;9.52;;;;;;;;;;5067297;28;20053;-65
2022/10/26 07:58:33;;;;;;;13.20;8.68;;;;;;;;;;5071043;28;20063;-65
2022/10/26 08:01:07;;;;;;;14.85;8.27;;;;;;;;;;5069332;28;20059;-65
2022/10/26 08:03:33;;;;;;;11.60;8.65;;;;;;;;;;5067810;28;20418;-68
2022/10/26 08:05:59;;;;;;;17.50;9.07;;;;;;;;;;5068432;28;20037;-67
2022/10/26 08:08:25;;;;;;;16.52;8.13;;;;;;;;;;5071299;28;20112;-64
2022/10/26 08:10:51;;;;;;;16.52;8.85;;;;;;;;;;5061721;28;20197;-69
2022/10/26 08:13:18;;;;;;;13.18;7.43;;;;;;;;;;5068697;28;20126;-68
2022/10/26 08:15:44;;;;;;;12.98;7.80;;;;;;;;;;5075941;28;20712;-68
2022/10/26 08:18:10;;;;;;;12.27;7.55;;;;;;;;;;5071294;28;20039;-69
2022/10/26 08:20:36;;;;;;;13.02;7.47;;;;;;;;;;5032731;28;20048;-69
2022/10/26 08:23:05;;;;;;;17.77;7.22;;;;;;;;;;5067089;28;20089;-69
2022/10/26 08:25:34;;;;;;;17.17;7.50;;;;;;;;;;5095728;28;20044;-69
2022/10/26 08:28:01;;;;;;;12.70;7.43;;;;;;;;;;5072341;28;20051;-66
2022/10/26 08:30:28;;;;;;;13.93;7.40;;;;;;;;;;5069183;28;20043;-68
2022/10/26 08:33:00;;;;;;;19.10;7.25;;;;;;;;;;5079214;28;20068;-68
2022/10/26 08:35:26;;;;;;;13.02;6.63;;;;;;;;;;5077499;28;20402;-69
2022/10/26 08:37:52;;;;;;;12.38;7.15;;;;;;;;;;5072866;28;20040;-68
2022/10/26 08:40:21;;;;;;;13.93;6.55;;;;;;;;;;5072051;28;20044;-70
2022/10/26 08:42:49;;;;;;;15.52;6.90;;;;;;;;;;5070879;28;20097;-68
2022/10/26 08:45:28;;;;;;;11.98;6.28;;;;;;;;;;5070435;28;20063;-70
2022/10/26 08:47:56;;;;;;;14.80;7.05;;;;;;;;;;5070942;28;20030;-71
2022/10/26 08:50:25;;;;;;;11.60;7.07;;;;;;;;;;5070494;28;20120;-68
2022/10/26 08:52:51;;;;;;;17.27;6.78;;;;;;;;;;5068482;28;20040;-72
2022/10/26 08:55:19;;;;;;;11.73;7.07;;;;;;;;;;5067971;28;20101;-70
2022/10/26 08:57:47;;;;;;;12.07;6.90;;;;;;;;;;5079292;28;20048;-70
2022/10/26 09:00:23;;;;;;;10.23;6.55;;;;;;;;;;5068739;28;20467;-69
2022/10/26 09:02:49;;;;;;;10.07;7.38;;;;;;;;;;5066310;28;20080;-70
2022/10/26 09:05:18;;;;;;;12.25;6.50;;;;;;;;;;5069915;28;20491;-68
2022/10/26 09:07:44;;;;;;;11.73;6.35;;;;;;;;;;5069791;28;20040;-67
2022/10/26 09:10:30;;;;;;;10.55;6.13;;;;;;;;;;5064652;28;20033;-66
2022/10/26 09:13:04;;;;;;;10.60;5.80;;;;;;;;;;5067628;28;20041;-67
2022/10/26 09:15:49;;;;;;;10.65;6.40;;;;;;;;;;5068667;28;20438;-70
2022/10/26 09:18:15;;;;;;;8.50;5.85;;;;;;;;;;5067206;28;20093;-67
2022/10/26 09:21:02;;;;;;;9.57;5.63;;;;;;;;;;5079718;28;20039;-68
2022/10/26 09:23:36;;;;;;;10.02;5.80;;;;;;;;;;5075995;28;20368;-66
2022/10/26 09:26:04;;;;;;;9.07;6.07;;;;;;;;;;5068954;28;20045;-67
2022/10/26 09:28:34;;;;;;;10.07;5.72;;;;;;;;;;5066965;28;20142;-68
2022/10/26 09:31:01;;;;;;;9.63;5.63;;;;;;;;;;5066842;28;20475;-67
2022/10/26 09:33:28;;;;;;;11.88;5.75;;;;;;;;;;5073809;28;20047;-68
2022/10/26 09:35:54;;;;;;;9.52;5.07;;;;;;;;;;5066690;28;20047;-66
2022/10/26 09:38:29;;;;;;;9.85;4.90;;;;;;;;;;5068189;28;20036;-69
2022/10/26 09:40:58;;;;;;;8.82;5.07;;;;;;;;;;5067292;28;20418;-68
2022/10/26 09:43:27;;;;;;;10.77;5.13;;;;;;;;;;5066958;28;20493;-70
2022/10/26 09:45:54;;;;;;;9.13;5.40;;;;;;;;;;5064069;28;20037;-64
2022/10/26 09:48:33;;;;;;;10.70;5.60;;;;;;;;;;5064543;28;20093;-64
2022/10/26 09:50:59;;;;;;;6.38;4.55;;;;;;;;;;5066985;28;20036;-64
2022/10/26 09:53:25;;;;;;;12.75;5.53;;;;;;;;;;5068474;28;20467;-64
2022/10/26 09:55:56;;;;;;;7.55;4.55;;;;;;;;;;5065839;28;20845;-65
2022/10/26 09:58:25;;;;;;;8.90;5.40;;;;;;;;;;5067508;28;20127;-65
2022/10/26 10:00:51;;;;;;;8.15;4.38;;;;;;;;;;5068041;28;20045;-64
2022/10/26 10:03:19;;;;;;;9.50;4.63;;;;;;;;;;5065484;28;20062;-64
2022/10/26 10:05:45;;;;;;;9.13;4.53;;;;;;;;;;5055638;28;20115;-65
2022/10/26 10:08:14;;;;;;;11.80;4.32;;;;;;;;;;5059672;28;20724;-64
2022/10/26 10:10:59;;;;;;;13.18;4.78;;;;;;;;;;5063502;28;20025;-65
2022/10/26 10:13:32;;;;;;;14.63;4.32;;;;;;;;;;5067469;28;20056;-65
2022/10/26 10:16:01;;;;;;;9.43;3.92;;;;;;;;;;5068689;28;20044;-65
2022/10/26 10:18:27;;;;;;;8.52;4.15;;;;;;;;;;5063486;28;20040;-65
2022/10/26 10:20:54;;;;;;;6.47;3.90;;;;;;;;;;5059590;28;20379;-65
2022/10/26 10:23:25;;;;;;;9.38;3.92;;;;;;;;;;5063987;28;20642;-65
2022/10/26 10:25:58;;;;;;;8.38;4.53;;;;;;;;;;5063022;28;20063;-65
2022/10/26 10:28:27;;;;;;;10.05;4.75;;;;;;;;;;5065592;28;20044;-65
2022/10/26 10:31:01;;;;;;;6.22;3.97;;;;;;;;;;5066112;28;20068;-65
2022/10/26 10:33:34;;;;;;;11.20;4.22;;;;;;;;;;5061800;28;21377;-67
2022/10/26 10:36:00;;;;;;;8.07;3.80;;;;;;;;;;5062019;28;20040;-65
2022/10/26 10:38:26;;;;;;;10.00;3.80;;;;;;;;;;5065770;28;20040;-64
2022/10/26 10:40:54;;;;;;;7.68;4.35;;;;;;;;;;5063406;28;20386;-66
2022/10/26 10:43:20;;;;;;;8.27;4.15;;;;;;;;;;5066480;28;20395;-64
2022/10/26 10:45:48;;;;;;;8.52;4.05;;;;;;;;;;5066856;28;20174;-65
2022/10/26 10:48:16;;;;;;;6.15;4.20;;;;;;;;;;5066157;28;20379;-65
2022/10/26 10:50:51;;;;;;;9.30;4.40;;;;;;;;;;5065120;28;20037;-64
2022/10/26 10:53:23;;;;;;;8.75;3.88;;;;;;;;;;5065101;28;20036;-64
2022/10/26 10:56:00;;;;;;;7.07;4.20;;;;;;;;;;5065521;28;20044;-65
2022/10/26 10:58:30;;;;;;;7.60;3.63;;;;;;;;;;5065655;28;20078;-65
2022/10/26 11:00:57;;;;;;;6.85;3.65;;;;;;;;;;5066775;28;20529;-65
2022/10/26 11:03:42;;;;;;;10.95;3.65;;;;;;;;;;5064355;28;20094;-69
2022/10/26 11:06:19;;;;;;;8.55;3.85;;;;;;;;;;5066479;28;20458;-68
2022/10/26 11:08:45;;;;;;;7.75;3.80;;;;;;;;;;5066322;28;20058;-66
2022/10/26 11:11:15;;;;;;;7.75;3.17;;;;;;;;;;5065363;28;20063;-67
2022/10/26 11:13:45;;;;;;;9.07;3.55;;;;;;;;;;5065346;28;20056;-64
2022/10/26 11:16:14;;;;;;;5.97;3.03;;;;;;;;;;5062497;28;20045;-64
2022/10/26 11:18:43;;;;;;;6.95;3.50;;;;;;;;;;5068588;28;20394;-65
2022/10/26 11:21:28;;;;;;;8.90;3.28;;;;;;;;;;5071198;28;20055;-65
2022/10/26 11:24:05;;;;;;;6.30;3.10;;;;;;;;;;5067760;28;20052;-65
2022/10/26 11:26:38;;;;;;;10.45;3.42;;;;;;;;;;5064036;28;20135;-65
2022/10/26 11:29:11;;;;;;;7.28;3.05;;;;;;;;;;5069730;28;20501;-66
2022/10/26 11:31:41;;;;;;;6.80;2.72;;;;;;;;;;5069945;28;20432;-65
2022/10/26 11:34:07;;;;;;;5.32;2.72;;;;;;;;;;5053536;28;20361;-65
2022/10/26 11:36:34;;;;;;;6.35;2.53;;;;;;;;;;5070698;28;20044;-65
2022/10/26 11:39:20;;;;;;;8.60;3.08;;;;;;;;;;5069774;28;20032;-65
2022/10/26 11:41:50;;;;;;;5.35;2.53;;;;;;;;;;5069448;28;20040;-65
2022/10/26 11:44:20;;;;;;;5.75;2.42;;;;;;;;;;5069092;28;20050;-65
2022/10/26 11:46:52;;;;;;;7.72;2.80;;;;;;;;;;5066829;28;20047;-65
2022/10/26 11:49:22;;;;;;;12.93;3.15;;;;;;;;;;5066671;28;20045;-69
2022/10/26 11:52:06;;;;;;;4.82;2.50;;;;;;;;;;5067148;28;20523;-66
2022/10/26 11:54:38;;;;;;;6.72;3.47;;;;;;;;;;5067490;28;20039;-65
2022/10/26 11:57:05;;;;;;;7.97;2.63;;;;;;;;;;5068201;28;20133;-65
2022/10/26 11:59:33;;;;;;;7.30;2.63;;;;;;;;;;5066731;28;20097;-66
2022/10/26 12:02:22;;;;;;;5.95;2.42;;;;;;;;;;5070145;28;20447;-65
2022/10/26 12:04:53;;;;;;;6.88;2.50;;;;;;;;;;5059568;28;20146;-66
2022/10/26 12:07:22;;;;;;;3.40;2.30;;;;;;;;;;5063661;28;20068;-66
2022/10/26 12:09:49;;;;;;;6.05;2.53;;;;;;;;;;5066860;28;20302;-65
2022/10/26 12:12:21;;;;;;;7.80;2.95;;;;;;;;;;5065666;28;20154;-66
2022/10/26 12:15:06;;;;;;;10.27;2.90;;;;;;;;;;5067502;28;20502;-65
2022/10/26 12:17:44;;;;;;;8.20;3.05;;;;;;;;;;5064682;28;21048;-65
2022/10/26 12:20:45;;;;;;;6.78;3.00;;;;;;;;;;5064081;28;20040;-66
2022/10/26 12:23:12;;;;;;;5.35;2.22;;;;;;;;;;5040446;28;20036;-69
2022/10/26 12:25:38;;;;;;;3.47;2.30;;;;;;;;;;5053420;28;20400;-66
2022/10/26 12:28:04;;;;;;;7.53;2.50;;;;;;;;;;5066269;28;20032;-67
2022/10/26 12:30:32;;;;;;;7.85;2.55;;;;;;;;;;5066948;28;20054;-67
2022/10/26 12:33:03;;;;;;;6.57;2.53;;;;;;;;;;5066279;28;20509;-68
2022/10/26 12:35:32;;;;;;;7.22;3.08;;;;;;;;;;5064347;28;20055;-68
2022/10/26 12:37:58;;;;;;;5.90;2.90;;;;;;;;;;5066282;28;20721;-67
2022/10/26 12:40:33;;;;;;;10.70;2.80;;;;;;;;;;5065924;28;20243;-70
2022/10/26 12:43:18;;;;;;;9.20;3.30;;;;;;;;;;5067301;28;20048;-68
2022/10/26 12:45:45;;;;;;;3.83;2.65;;;;;;;;;;5067203;28;20032;-67
2022/10/26 12:48:29;;;;;;;9.23;3.08;;;;;;;;;;5065341;28;20449;-66
2022/10/26 12:51:15;;;;;;;5.53;2.72;;;;;;;;;;5068469;28;20040;-68
2022/10/26 12:53:41;;;;;;;9.30;3.13;;;;;;;;;;5068778;28;20135;-66
2022/10/26 12:56:11;;;;;;;5.35;2.60;;;;;;;;;;5067594;28;20760;-68
2022/10/26 12:59:01;;;;;;;10.55;3.28;;;;;;;;;;5067512;28;20044;-69
2022/10/26 13:01:27;;;;;;;5.20;2.63;;;;;;;;;;5063852;28;20135;-70
2022/10/26 13:04:09;;;;;;;5.95;3.00;;;;;;;;;;5065398;28;20140;-68
2022/10/26 13:06:40;;;;;;;5.45;2.67;;;;;;;;;;5064806;28;20048;-68
2022/10/26 13:09:17;;;;;;;8.60;2.85;;;;;;;;;;5068334;28;20047;-67
2022/10/26 13:11:46;;;;;;;6.97;2.97;;;;;;;;;;5066583;28;20060;-67
2022/10/26 13:14:32;;;;;;;9.73;3.03;;;;;;;;;;5067347;28;20768;-68
2022/10/26 13:17:00;;;;;;;8.07;3.78;;;;;;;;;;5067988;28;20108;-69
2022/10/26 13:19:39;;;;;;;9.45;3.42;;;;;;;;;;5065788;28;20127;-65
2022/10/26 13:22:05;;;;;;;7.22;3.33;;;;;;;;;;5068630;28;20660;-65
2022/10/26 13:24:32;;;;;;;9.52;3.80;;;;;;;;;;5067469;28;20620;-66
2022/10/26 13:27:04;;;;;;;11.57;3.90;;;;;;;;;;5068272;28;20102;-66
2022/10/26 13:29:30;;;;;;;;;;;;;;;;;;5066500;28;20051;-67
2022/10/26 13:31:56;;;;;;;9.07;3.53;;;;;;;;;;5066057;28;20327;-71
2022/10/26 13:34:23;;;;;;;10.00;3.90;;;;;;;;;;5065858;28;20127;-69
2022/10/26 13:36:52;;;;;;;11.07;3.95;;;;;;;;;;5067310;28;20045;-71
2022/10/26 13:39:21;;;;;;;14.00;3.72;;;;;;;;;;5099990;28;20044;-73
2022/10/26 13:41:49;;;;;;;6.60;3.88;;;;;;;;;;5065580;28;20044;-69
2022/10/26 13:44:30;;;;;;;10.57;3.60;;;;;;;;;;5064456;28;20124;-71
2022/10/26 13:47:01;;;;;;;7.93;3.50;;;;;;;;;;5068430;28;20407;-69
2022/10/26 13:49:30;;;;;;;8.25;3.50;;;;;;;;;;5066611;28;20101;-67
2022/10/26 13:51:59;;;;;;;5.82;3.13;;;;;;;;;;5067849;28;20037;-67
2022/10/26 13:54:42;;;;;;;7.03;3.17;;;;;;;;;;5067271;28;20056;-66
2022/10/26 13:57:29;;;;;;;6.38;3.00;;;;;;;;;;5070039;28;20036;-66
2022/10/26 13:59:56;;;;;;;8.55;3.22;;;;;;;;;;5069158;28;20107;-67
2022/10/26 14:02:26;;;;;;;8.00;3.30;;;;;;;;;;5069909;28;20079;-67
2022/10/26 14:04:58;;;;;;;7.53;3.25;;;;;;;;;;5066870;28;20041;-66
2022/10/26 14:07:26;;;;;;;8.68;2.75;;;;;;;;;;5069114;28;20387;-67
2022/10/26 14:09:56;;;;;;;7.05;2.60;;;;;;;;;;5069265;28;20044;-67
2022/10/26 14:12:24;;;;;;;9.05;3.00;;;;;;;;;;5070395;28;20083;-67
2022/10/26 14:14:51;;;;;;;7.18;2.85;;;;;;;;;;5068455;28;20110;-67
2022/10/26 14:17:21;;;;;;;5.88;3.00;;;;;;;;;;5070480;28;20044;-67
2022/10/26 14:19:48;;;;;;;6.05;2.65;;;;;;;;;;5070913;28;20032;-67
2022/10/26 14:22:21;;;;;;;6.47;2.72;;;;;;;;;;5070344;28;20048;-67
2022/10/26 14:24:55;;;;;;;6.25;3.10;;;;;;;;;;5070888;28;20041;-67
2022/10/26 14:27:22;;;;;;;6.90;2.97;;;;;;;;;;5070709;28;20063;-67
2022/10/26 14:29:49;;;;;;;12.27;3.47;;;;;;;;;;5070433;28;20094;-67
2022/10/26 14:32:23;;;;;;;7.32;3.22;;;;;;;;;;5070540;28;20124;-67
2022/10/26 14:34:49;;;;;;;5.57;3.10;;;;;;;;;;5070913;28;20363;-67
2022/10/26 14:37:35;;;;;;;6.45;2.75;;;;;;;;;;5070563;28;20099;-67
2022/10/26 14:40:01;;;;;;;12.50;3.50;;;;;;;;;;5069700;28;20056;-67
2022/10/26 14:42:27;;;;;;;10.02;3.45;;;;;;;;;;5070747;28;20358;-67